Time;durP1;ratioP1;P1;durP2;ratioP2;P2;SDS_P1;SDS_P2;PMS_P1;PMS_P2;Temp;Humidity;BMP_temperature;BMP_pressure;BME280_temperature;BME280_humidity;BME280_pressure;Samples;Min_cycle;Max_cycle;Signal;HPM_P1;HPM_P2
2023/01/05 00:00:03;;;;;;;;;;;8.90;99.90;;;;;;4852256;29;19975;-71
2023/01/05 00:02:29;;;;;;;;;;;8.90;99.90;;;;;;4848405;29;19932;-71
2023/01/05 00:04:55;;;;;;;;;;;8.90;99.90;;;;;;4850286;29;19933;-71
2023/01/05 00:07:20;;;;;;;;;;;8.90;99.90;;;;;;4848890;29;19928;-71
2023/01/05 00:09:46;;;;;;;;;;;8.90;99.90;;;;;;4847629;29;19941;-71
2023/01/05 00:23:19;;;;;;;;;;;8.90;99.90;;;;;;4843666;29;19943;-71
2023/01/05 00:25:45;;;;;;;;;;;8.90;99.90;;;;;;4858055;29;20278;-71
2023/01/05 00:28:11;;;;;;;;;;;8.90;99.90;;;;;;4825011;29;19935;-71
2023/01/05 00:30:41;;;;;;;;;;;8.90;99.90;;;;;;4855245;29;19988;-71
2023/01/05 00:33:11;;;;;;;;;;;8.90;99.90;;;;;;4856272;29;19980;-71
2023/01/05 00:35:37;;;;;;;;;;;8.90;99.90;;;;;;4850607;29;19928;-71
2023/01/05 00:38:03;;;;;;;;;;;8.90;99.90;;;;;;4842694;29;19928;-71
2023/01/05 00:40:29;;;;;;;;;;;8.90;99.90;;;;;;4838931;29;19931;-71
2023/01/05 00:42:54;;;;;;;;;;;8.90;99.90;;;;;;4838523;29;19947;-71
2023/01/05 00:45:20;;;;;;;;;;;8.90;99.90;;;;;;4857824;29;19932;-71
2023/01/05 00:47:46;;;;;;;;;;;8.90;99.90;;;;;;4842909;29;19972;-71
2023/01/05 00:50:13;;;;;;;;;;;8.90;99.90;;;;;;4852297;29;19935;-71
2023/01/05 00:52:39;;;;;;;;;;;8.90;99.90;;;;;;4858029;29;19934;-71
2023/01/05 00:55:05;;;;;;;;;;;9.00;99.90;;;;;;4855166;29;19963;-71
2023/01/05 00:57:30;;;;;;;;;;;9.00;99.90;;;;;;4842635;29;20247;-71
2023/01/05 00:59:56;;;;;;;;;;;9.00;99.90;;;;;;4868763;29;19939;-71
2023/01/05 01:02:21;;;;;;;;;;;9.00;99.90;;;;;;4856160;29;20456;-71
2023/01/05 01:04:47;;;;;;;;;;;9.00;99.90;;;;;;4842230;29;19928;-71
2023/01/05 01:07:13;;;;;;;;;;;9.00;99.90;;;;;;4843817;29;19983;-71
2023/01/05 01:09:39;;;;;;;;;;;9.00;99.90;;;;;;4853216;29;19924;-71
2023/01/05 01:12:05;;;;;;;;;;;8.90;99.90;;;;;;4840273;29;20390;-71
2023/01/05 01:14:30;;;;;;;;;;;8.90;99.90;;;;;;4851896;29;19972;-71
2023/01/05 01:16:56;;;;;;;;;;;8.90;99.90;;;;;;4831067;29;19931;-71
2023/01/05 01:19:22;;;;;;;;;;;8.90;99.90;;;;;;4825114;29;19928;-71
2023/01/05 01:21:48;;;;;;;;;;;8.90;99.90;;;;;;4852290;29;19963;-71
2023/01/05 01:24:15;;;;;;;;;;;8.90;99.90;;;;;;4853065;29;19924;-71
2023/01/05 01:26:41;;;;;;;;;;;8.90;99.90;;;;;;4856936;29;19949;-71
2023/01/05 01:29:06;;;;;;;;;;;8.80;99.90;;;;;;4852524;29;20377;-71
2023/01/05 01:31:34;;;;;;;;;;;8.90;99.90;;;;;;4818096;29;19932;-71
2023/01/05 01:33:59;;;;;;;;;;;8.90;99.90;;;;;;4855649;29;19931;-71
2023/01/05 01:36:25;;;;;;;;;;;8.90;99.90;;;;;;4831917;29;20359;-71
2023/01/05 01:38:51;;;;;;;;;;;8.90;99.90;;;;;;4857435;29;20397;-71
2023/01/05 01:41:16;;;;;;;;;;;8.80;99.90;;;;;;4856034;29;20270;-71
2023/01/05 01:43:46;;;;;;;;;;;8.80;99.90;;;;;;4857297;29;19924;-72
2023/01/05 01:46:12;;;;;;;;;;;8.80;99.90;;;;;;4855924;29;19992;-71
2023/01/05 01:48:40;;;;;;;;;;;8.80;99.90;;;;;;4855558;29;19939;-71
2023/01/05 01:51:09;;;;;;;;;;;8.80;99.90;;;;;;4840052;29;19935;-72
2023/01/05 01:53:43;;;;;;;;;;;8.80;99.90;;;;;;4856632;29;19988;-71
2023/01/05 01:56:10;;;;;;;;;;;8.90;99.90;;;;;;4856865;29;19924;-71
2023/01/05 01:58:36;;;;;;;;;;;8.90;99.90;;;;;;4854067;29;19963;-71
2023/01/05 02:01:02;;;;;;;;;;;8.90;99.90;;;;;;4836882;29;20064;-71
2023/01/05 02:03:28;;;;;;;;;;;8.90;99.90;;;;;;4853992;29;20076;-72
2023/01/05 02:05:54;;;;;;;;;;;8.90;99.90;;;;;;4836442;29;19932;-71
2023/01/05 02:08:30;;;;;;;;;;;8.90;99.90;;;;;;4857543;29;19955;-71
2023/01/05 02:11:03;;;;;;;;;;;8.90;99.90;;;;;;4844509;29;19994;-71
2023/01/05 02:13:42;;;;;;;;;;;8.90;99.90;;;;;;4858955;29;19931;-71
2023/01/05 02:16:08;;;;;;;;;;;8.90;99.90;;;;;;4856279;29;20467;-71
2023/01/05 02:18:59;;;;;;;;;;;8.90;99.90;;;;;;4855548;29;20042;-71
2023/01/05 02:21:41;;;;;;;;;;;8.80;99.90;;;;;;4858744;29;19928;-71
2023/01/05 02:24:15;;;;;;;;;;;8.80;99.90;;;;;;4852720;29;20019;-71
2023/01/05 02:26:41;;;;;;;;;;;8.80;99.90;;;;;;4856331;29;19934;-71
2023/01/05 02:29:25;;;;;;;;;;;8.80;99.90;;;;;;4858904;29;19928;-72
2023/01/05 02:32:17;;;;;;;;;;;8.70;99.90;;;;;;4840807;29;19928;-71
2023/01/05 02:34:53;;;;;;;;;;;8.70;99.90;;;;;;4855673;29;19928;-71
2023/01/05 02:37:39;;;;;;;;;;;8.70;99.90;;;;;;4857846;29;19947;-71
2023/01/05 02:40:08;;;;;;;;;;;8.70;99.90;;;;;;4857029;29;19929;-71
2023/01/05 02:42:35;;;;;;;;;;;8.70;99.90;;;;;;4851663;29;19924;-71
2023/01/05 02:45:02;;;;;;;;;;;8.60;99.90;;;;;;4852942;29;19924;-71
2023/01/05 02:47:28;;;;;;;;;;;8.70;99.90;;;;;;4860075;29;19927;-71
2023/01/05 02:50:01;;;;;;;;;;;8.70;99.90;;;;;;4857444;29;20246;-71
2023/01/05 02:52:34;;;;;;;;;;;8.60;99.90;;;;;;4858523;29;20078;-71
2023/01/05 02:55:02;;;;;;;;;;;8.60;99.90;;;;;;4855014;29;19931;-71
2023/01/05 02:57:46;;;;;;;;;;;8.70;99.90;;;;;;4856282;29;19927;-71
2023/01/05 03:00:15;;;;;;;;;;;8.70;99.90;;;;;;4842811;29;19999;-71
2023/01/05 03:02:42;;;;;;;;;;;8.70;99.90;;;;;;4856934;29;20364;-71
2023/01/05 03:05:09;;;;;;;;;;;8.70;99.90;;;;;;4858940;29;20027;-71
2023/01/05 03:07:37;;;;;;;;;;;8.70;99.90;;;;;;4834928;29;19950;-71
2023/01/05 03:13:39;;;;;;;;;;;8.70;99.90;;;;;;4854619;29;20441;-71
2023/01/05 03:15:36;;;;;;;;;;;8.60;99.90;;;;;;4855959;29;19928;-71
2023/01/05 03:18:10;;;;;;;;;;;8.60;99.90;;;;;;4852541;29;19928;-71
2023/01/05 03:20:39;;;;;;;;;;;8.60;99.90;;;;;;4848022;29;19931;-71
2023/01/05 03:37:39;;;;;;;;;;;8.70;99.90;;;;;;4855200;29;19952;-71
2023/01/05 03:40:09;;;;;;;;;;;8.70;99.90;;;;;;4852525;29;19924;-71
2023/01/05 03:42:35;;;;;;;;;;;8.80;99.90;;;;;;4856966;29;19924;-71
2023/01/05 03:45:01;;;;;;;;;;;8.80;99.90;;;;;;4863908;29;19924;-71
2023/01/05 03:47:26;;;;;;;;;;;8.80;99.90;;;;;;4842429;29;19984;-71
2023/01/05 03:49:52;;;;;;;;;;;8.80;99.90;;;;;;4842204;29;20038;-71
2023/01/05 03:52:17;;;;;;;;;;;8.80;99.90;;;;;;4828634;29;19932;-71
2023/01/05 03:54:43;;;;;;;;;;;8.80;99.90;;;;;;4861207;29;19928;-71
2023/01/05 03:57:08;;;;;;;;;;;8.80;99.90;;;;;;4860026;29;20300;-71
2023/01/05 03:59:34;;;;;;;;;;;8.80;99.90;;;;;;4859538;29;19972;-71
2023/01/05 04:01:59;;;;;;;;;;;8.80;99.90;;;;;;4859058;29;19975;-71
2023/01/05 04:04:25;;;;;;;;;;;8.80;99.90;;;;;;4845970;29;19924;-71
2023/01/05 04:06:50;;;;;;;;;;;8.80;99.90;;;;;;4845411;29;19932;-72
2023/01/05 04:09:16;;;;;;;;;;;8.80;99.90;;;;;;4860224;29;19923;-72
2023/01/05 04:11:42;;;;;;;;;;;8.70;99.90;;;;;;4845236;29;19927;-71
2023/01/05 04:14:07;;;;;;;;;;;8.70;99.90;;;;;;4846081;29;20388;-71
2023/01/05 04:16:33;;;;;;;;;;;8.70;99.90;;;;;;4859537;29;19987;-71
2023/01/05 04:18:58;;;;;;;;;;;8.60;99.90;;;;;;4846199;29;19956;-71
2023/01/05 04:21:24;;;;;;;;;;;8.60;99.90;;;;;;4870595;29;19931;-71
2023/01/05 04:23:49;;;;;;;;;;;8.60;99.90;;;;;;4846145;29;19924;-71
2023/01/05 04:26:15;;;;;;;;;;;8.60;99.90;;;;;;4846376;29;19935;-72
2023/01/05 04:28:41;;;;;;;;;;;8.60;99.90;;;;;;4845531;29;19924;-72
2023/01/05 04:31:06;;;;;;;;;;;8.70;99.90;;;;;;4841612;29;20483;-72
2023/01/05 04:33:32;;;;;;;;;;;8.70;99.90;;;;;;4852171;29;20439;-72
2023/01/05 04:35:57;;;;;;;;;;;8.70;99.90;;;;;;4858766;29;19924;-71
2023/01/05 04:38:23;;;;;;;;;;;8.70;99.90;;;;;;4862214;29;19932;-71
2023/01/05 04:40:49;;;;;;;;;;;8.70;99.90;;;;;;4849028;29;20239;-71
2023/01/05 04:43:15;;;;;;;;;;;8.80;99.90;;;;;;4860728;29;19938;-71
2023/01/05 04:45:40;;;;;;;;;;;8.80;99.90;;;;;;4856876;29;19924;-71
2023/01/05 04:48:06;;;;;;;;;;;8.80;99.90;;;;;;4840477;29;19928;-72
2023/01/05 04:50:31;;;;;;;;;;;8.90;99.90;;;;;;4859064;29;20285;-71
2023/01/05 04:52:57;;;;;;;;;;;8.80;99.90;;;;;;4829689;29;19939;-72
2023/01/05 04:55:23;;;;;;;;;;;8.80;99.90;;;;;;4859027;29;19942;-72
2023/01/05 04:57:48;;;;;;;;;;;8.80;99.90;;;;;;4848704;29;19928;-72
2023/01/05 05:00:14;;;;;;;;;;;8.80;99.90;;;;;;4834408;29;20376;-71
2023/01/05 05:02:40;;;;;;;;;;;8.80;99.90;;;;;;4853910;29;20059;-71
2023/01/05 05:05:05;;;;;;;;;;;8.90;99.90;;;;;;4857901;29;20430;-71
2023/01/05 05:07:31;;;;;;;;;;;8.90;99.90;;;;;;4861730;29;19967;-71
2023/01/05 05:09:57;;;;;;;;;;;8.90;99.90;;;;;;4845661;29;20015;-71
2023/01/05 05:12:22;;;;;;;;;;;8.90;99.90;;;;;;4861446;29;19932;-71
2023/01/05 05:14:48;;;;;;;;;;;8.90;99.90;;;;;;4846040;29;20355;-71
2023/01/05 05:17:15;;;;;;;;;;;8.90;99.90;;;;;;4851827;29;19928;-71
2023/01/05 05:19:40;;;;;;;;;;;8.90;99.90;;;;;;4842993;29;19924;-71
2023/01/05 05:22:06;;;;;;;;;;;8.90;99.90;;;;;;4853623;29;20439;-71
2023/01/05 05:24:31;;;;;;;;;;;8.90;99.90;;;;;;4855852;29;20060;-71
2023/01/05 05:26:57;;;;;;;;;;;9.00;99.90;;;;;;4853125;29;20441;-72
2023/01/05 05:29:23;;;;;;;;;;;9.00;99.90;;;;;;4848395;29;20480;-72
2023/01/05 05:31:49;;;;;;;;;;;9.00;99.90;;;;;;4839963;29;19935;-72
2023/01/05 05:34:14;;;;;;;;;;;9.00;99.90;;;;;;4854296;29;19992;-72
2023/01/05 05:36:40;;;;;;;;;;;9.00;99.90;;;;;;4855511;29;19924;-72
2023/01/05 05:39:06;;;;;;;;;;;9.00;99.90;;;;;;4846505;29;19976;-72
2023/01/05 05:41:31;;;;;;;;;;;8.90;99.90;;;;;;4857131;29;20377;-72
2023/01/05 05:43:59;;;;;;;;;;;9.00;99.90;;;;;;4844131;29;20383;-72
2023/01/05 05:46:26;;;;;;;;;;;9.00;99.90;;;;;;4857584;29;19931;-72
2023/01/05 05:48:51;;;;;;;;;;;9.00;99.90;;;;;;4859006;29;20014;-72
2023/01/05 05:51:17;;;;;;;;;;;9.00;99.90;;;;;;4855048;29;20355;-72
2023/01/05 05:53:42;;;;;;;;;;;9.00;99.90;;;;;;4850597;29;20308;-72
2023/01/05 05:56:08;;;;;;;;;;;9.00;99.90;;;;;;4844128;29;19924;-72
2023/01/05 05:58:34;;;;;;;;;;;9.00;99.90;;;;;;4842321;29;20345;-72
2023/01/05 06:00:59;;;;;;;;;;;9.00;99.90;;;;;;4844286;29;19992;-72
2023/01/05 06:03:25;;;;;;;;;;;9.00;99.90;;;;;;4853396;29;20122;-72
2023/01/05 06:05:51;;;;;;;;;;;9.00;99.90;;;;;;4844189;29;19932;-72
2023/01/05 06:08:16;;;;;;;;;;;9.00;99.90;;;;;;4830114;29;19927;-72
2023/01/05 06:10:42;;;;;;;;;;;8.90;99.90;;;;;;4850278;29;19924;-72
2023/01/05 06:13:07;;;;;;;;;;;8.90;99.90;;;;;;4855242;29;20531;-72
2023/01/05 06:15:33;;;;;;;;;;;9.00;99.90;;;;;;4855725;29;19928;-72
2023/01/05 06:17:58;;;;;;;;;;;8.90;99.90;;;;;;4860762;29;19984;-72
2023/01/05 06:20:24;;;;;;;;;;;8.90;99.90;;;;;;4855826;29;20443;-72
2023/01/05 06:22:49;;;;;;;;;;;9.00;99.90;;;;;;4841789;29;19928;-72
2023/01/05 06:25:15;;;;;;;;;;;9.00;99.90;;;;;;4844337;29;19923;-72
2023/01/05 06:27:41;;;;;;;;;;;9.00;99.90;;;;;;4856150;29;19930;-72
2023/01/05 06:30:07;;;;;;;;;;;9.00;99.90;;;;;;4836433;29;20348;-71
2023/01/05 06:32:32;;;;;;;;;;;9.00;99.90;;;;;;4859642;29;19935;-71
2023/01/05 06:34:58;;;;;;;;;;;9.00;99.90;;;;;;4852035;29;19983;-71
2023/01/05 06:37:23;;;;;;;;;;;9.00;99.90;;;;;;4859615;29;20415;-71
2023/01/05 06:39:49;;;;;;;;;;;9.00;99.90;;;;;;4860121;29;19923;-71
2023/01/05 06:42:14;;;;;;;;;;;9.10;99.90;;;;;;4829726;29;19925;-71
2023/01/05 06:44:41;;;;;;;;;;;9.10;99.90;;;;;;4854123;29;20020;-71
2023/01/05 06:47:07;;;;;;;;;;;9.00;99.90;;;;;;4841322;29;20091;-71
2023/01/05 06:49:32;;;;;;;;;;;9.00;99.90;;;;;;4841531;29;20716;-72
2023/01/05 06:51:58;;;;;;;;;;;9.00;99.90;;;;;;4844663;29;20356;-72
2023/01/05 06:54:23;;;;;;;;;;;9.00;99.90;;;;;;4856040;29;19971;-72
2023/01/05 06:56:49;;;;;;;;;;;9.00;99.90;;;;;;4857000;29;20027;-72
2023/01/05 06:59:14;;;;;;;;;;;9.00;99.90;;;;;;4840751;29;19928;-72
2023/01/05 07:01:40;;;;;;;;;;;9.00;99.90;;;;;;4858441;29;19938;-72
2023/01/05 07:04:06;;;;;;;;;;;9.00;99.90;;;;;;4859851;29;19928;-72
2023/01/05 07:06:32;;;;;;;;;;;8.90;99.90;;;;;;4856192;29;19936;-71
2023/01/05 07:08:58;;;;;;;;;;;8.90;99.90;;;;;;4855231;29;20312;-71
2023/01/05 07:11:24;;;;;;;;;;;8.80;99.90;;;;;;4849385;29;20019;-71
2023/01/05 07:13:49;;;;;;;;;;;8.70;99.90;;;;;;4846441;29;19947;-71
2023/01/05 07:16:16;;;;;;;;;;;8.70;99.90;;;;;;4842173;29;19980;-71
2023/01/05 07:18:41;;;;;;;;;;;8.60;99.90;;;;;;4848075;29;19948;-71
2023/01/05 07:21:07;;;;;;;;;;;8.60;99.90;;;;;;4851461;29;19928;-71
2023/01/05 07:23:36;;;;;;;;;;;8.60;99.90;;;;;;4842218;29;20382;-71
2023/01/05 07:26:02;;;;;;;;;;;8.60;99.90;;;;;;4841121;29;20365;-71
2023/01/05 07:28:28;;;;;;;;;;;8.70;99.90;;;;;;4835987;29;19929;-71
2023/01/05 07:30:53;;;;;;;;;;;8.60;99.90;;;;;;4838827;29;20411;-71
2023/01/05 07:33:19;;;;;;;;;;;8.60;99.90;;;;;;4849995;29;19983;-71
2023/01/05 07:35:45;;;;;;;;;;;8.60;99.90;;;;;;4840955;29;20015;-71
2023/01/05 07:38:10;;;;;;;;;;;8.60;99.90;;;;;;4818491;29;19931;-71
2023/01/05 07:40:36;;;;;;;;;;;8.60;99.90;;;;;;4838014;29;19928;-71
2023/01/05 07:43:01;;;;;;;;;;;8.60;99.90;;;;;;4848276;29;19928;-71
2023/01/05 07:45:27;;;;;;;;;;;8.60;99.90;;;;;;4855795;29;20027;-71
2023/01/05 07:47:53;;;;;;;;;;;8.70;99.90;;;;;;4857081;29;19932;-71
2023/01/05 07:50:18;;;;;;;;;;;8.70;99.90;;;;;;4839570;29;20103;-71
2023/01/05 07:52:44;;;;;;;;;;;8.70;99.90;;;;;;4826122;29;20292;-71
2023/01/05 07:55:09;;;;;;;;;;;8.70;99.90;;;;;;4870307;29;20015;-71
2023/01/05 07:57:35;;;;;;;;;;;8.70;99.90;;;;;;4851890;29;20333;-71
2023/01/05 08:00:01;;;;;;;;;;;8.70;99.90;;;;;;4837766;29;19967;-71
2023/01/05 08:02:26;;;;;;;;;;;8.70;99.90;;;;;;4849845;29;19928;-72
2023/01/05 08:04:52;;;;;;;;;;;8.80;99.90;;;;;;4845537;29;19992;-71
2023/01/05 08:07:20;;;;;;;;;;;8.80;99.90;;;;;;4851461;29;19978;-71
2023/01/05 08:10:36;;;;;;;;;;;8.80;99.90;;;;;;4848161;29;21752;-72
2023/01/05 08:13:58;;;;;;;;;;;8.80;99.90;;;;;;4838631;29;19960;-72
2023/01/05 08:15:22;;;;;;;;;;;8.80;99.90;;;;;;4846597;29;20205;-72
2023/01/05 08:17:48;;;;;;;;;;;8.80;99.90;;;;;;4833080;29;19924;-72
2023/01/05 08:20:13;;;;;;;;;;;8.70;99.90;;;;;;4839132;29;20308;-72
2023/01/05 08:22:39;;;;;;;;;;;8.80;99.90;;;;;;4840459;29;19931;-71
2023/01/05 08:25:04;;;;;;;;;;;8.80;99.90;;;;;;4856568;29;19978;-72
2023/01/05 08:27:32;;;;;;;;;;;8.80;99.90;;;;;;4826036;29;19928;-72
2023/01/05 08:29:58;;;;;;;;;;;8.80;99.90;;;;;;4855484;29;19928;-72
2023/01/05 08:32:24;;;;;;;;;;;8.90;99.90;;;;;;4852256;29;19928;-72
2023/01/05 08:34:49;;;;;;;;;;;8.90;99.90;;;;;;4853155;29;19985;-72
2023/01/05 08:37:16;;;;;;;;;;;8.90;99.90;;;;;;4840712;29;20386;-72
2023/01/05 08:39:42;;;;;;;;;;;8.90;99.90;;;;;;4843745;29;19924;-72
2023/01/05 08:42:07;;;;;;;;;;;8.90;99.90;;;;;;4850405;29;20415;-72
2023/01/05 08:44:33;;;;;;;;;;;8.90;99.90;;;;;;4852484;29;19996;-72
2023/01/05 08:46:58;;;;;;;;;;;8.90;99.90;;;;;;4853851;29;19934;-72
2023/01/05 08:49:24;;;;;;;;;;;8.90;99.90;;;;;;4842997;29;20007;-72
2023/01/05 08:51:53;;;;;;;;;;;8.90;99.90;;;;;;4855080;29;19947;-72
2023/01/05 08:54:18;;;;;;;;;;;8.90;99.90;;;;;;4877011;29;20591;-73
2023/01/05 08:56:44;;;;;;;;;;;8.90;99.90;;;;;;4827260;29;19932;-73
2023/01/05 08:59:13;;;;;;;;;;;9.00;99.90;;;;;;4851527;29;19996;-73
2023/01/05 09:01:39;;;;;;;;;;;8.90;99.90;;;;;;4852141;29;19952;-72
2023/01/05 09:04:04;;;;;;;;;;;9.00;99.90;;;;;;4862578;29;19924;-72
2023/01/05 09:06:30;;;;;;;;;;;9.00;99.90;;;;;;4843412;29;19985;-72
2023/01/05 09:08:56;;;;;;;;;;;9.00;99.90;;;;;;4836738;29;19972;-72
2023/01/05 09:11:24;;;;;;;;;;;9.00;99.90;;;;;;4840222;29;20032;-71
2023/01/05 09:13:51;;;;;;;;;;;9.00;99.90;;;;;;4838815;29;19993;-72
2023/01/05 09:16:18;;;;;;;;;;;9.10;99.90;;;;;;4858510;29;19928;-72
2023/01/05 09:18:45;;;;;;;;;;;9.00;99.90;;;;;;4854365;29;19932;-71
2023/01/05 09:21:11;;;;;;;;;;;9.00;99.90;;;;;;4853896;29;19932;-72
2023/01/05 09:23:37;;;;;;;;;;;9.10;99.90;;;;;;4838718;29;19941;-72
2023/01/05 09:26:07;;;;;;;;;;;9.00;99.90;;;;;;4827819;29;19928;-73
2023/01/05 09:28:35;;;;;;;;;;;9.00;99.90;;;;;;4851081;29;19935;-72
2023/01/05 09:31:06;;;;;;;;;;;9.10;99.90;;;;;;4853188;29;19924;-72
2023/01/05 09:33:32;;;;;;;;;;;9.00;99.90;;;;;;4858480;29;19928;-73
2023/01/05 09:35:58;;;;;;;;;;;9.10;99.90;;;;;;4842432;29;19980;-72
2023/01/05 09:38:23;;;;;;;;;;;9.10;99.90;;;;;;4852970;29;20412;-72
2023/01/05 09:40:50;;;;;;;;;;;9.10;99.90;;;;;;4856056;29;20002;-73
2023/01/05 09:43:27;;;;;;;;;;;9.10;99.90;;;;;;4841519;29;19928;-73
2023/01/05 09:45:53;;;;;;;;;;;9.10;99.90;;;;;;4843452;29;19967;-73
2023/01/05 09:48:19;;;;;;;;;;;9.10;99.90;;;;;;4844290;29;19932;-72
2023/01/05 09:50:46;;;;;;;;;;;9.10;99.90;;;;;;4852388;29;19925;-72
2023/01/05 09:53:12;;;;;;;;;;;9.10;99.90;;;;;;4859159;29;19951;-72
2023/01/05 09:55:40;;;;;;;;;;;9.20;99.90;;;;;;4854301;29;19931;-72
2023/01/05 09:58:09;;;;;;;;;;;9.20;99.90;;;;;;4859088;29;20460;-72
2023/01/05 10:00:37;;;;;;;;;;;9.20;99.90;;;;;;4851628;29;19933;-72
2023/01/05 10:03:13;;;;;;;;;;;9.20;99.90;;;;;;4858063;29;19928;-72
2023/01/05 10:05:40;;;;;;;;;;;9.20;99.90;;;;;;4858651;29;19956;-72
2023/01/05 10:08:10;;;;;;;;;;;9.30;99.90;;;;;;4858949;29;20483;-72
2023/01/05 10:10:41;;;;;;;;;;;9.30;99.90;;;;;;4855763;29;19932;-72
2023/01/05 10:13:10;;;;;;;;;;;9.30;99.90;;;;;;4843185;29;20006;-71
2023/01/05 10:15:47;;;;;;;;;;;9.40;99.90;;;;;;4856200;29;19924;-70
2023/01/05 10:18:26;;;;;;;;;;;9.40;99.90;;;;;;4853101;29;19982;-70
2023/01/05 10:21:11;;;;;;;;;;;9.40;99.90;;;;;;4840546;29;20168;-70
2023/01/05 10:23:43;;;;;;;;;;;9.40;99.90;;;;;;4867864;29;19925;-70
2023/01/05 10:26:13;;;;;;;;;;;9.50;99.90;;;;;;4832186;29;20387;-70
2023/01/05 10:28:50;;;;;;;;;;;9.50;99.90;;;;;;4840486;29;20007;-70
2023/01/05 10:31:28;;;;;;;;;;;9.60;99.90;;;;;;4858697;29;19928;-70
2023/01/05 10:34:02;;;;;;;;;;;9.60;99.90;;;;;;4855346;29;19932;-70
2023/01/05 10:36:43;;;;;;;;;;;9.60;99.90;;;;;;4856545;29;20461;-70
2023/01/05 10:39:27;;;;;;;;;;;9.60;99.90;;;;;;4855095;29;20046;-70
2023/01/05 10:41:52;;;;;;;;;;;9.60;99.90;;;;;;4858151;29;20367;-70
2023/01/05 10:44:27;;;;;;;;;;;9.60;99.90;;;;;;4828915;29;19929;-70
2023/01/05 10:46:53;;;;;;;;;;;9.60;99.90;;;;;;4843035;29;19938;-70
2023/01/05 10:49:21;;;;;;;;;;;9.70;99.90;;;;;;4857180;29;19928;-70
2023/01/05 10:51:48;;;;;;;;;;;9.70;99.90;;;;;;4858136;29;20007;-70
2023/01/05 10:54:28;;;;;;;;;;;9.70;99.90;;;;;;4854268;29;19978;-70
2023/01/05 10:56:53;;;;;;;;;;;9.70;99.90;;;;;;4857656;29;19938;-70
2023/01/05 10:59:19;;;;;;;;;;;9.70;99.90;;;;;;4840790;29;20007;-70
2023/01/05 11:01:47;;;;;;;;;;;9.70;99.90;;;;;;4838523;29;19924;-70
2023/01/05 11:04:21;;;;;;;;;;;9.70;99.90;;;;;;4857703;29;20475;-70
2023/01/05 11:06:47;;;;;;;;;;;9.70;99.90;;;;;;4854948;29;19944;-70
2023/01/05 11:09:17;;;;;;;;;;;9.70;99.90;;;;;;4856282;29;20300;-70
2023/01/05 11:11:51;;;;;;;;;;;9.70;99.90;;;;;;4857114;29;19932;-70
2023/01/05 11:14:20;;;;;;;;;;;9.80;99.90;;;;;;4854130;29;19977;-70
2023/01/05 11:16:47;;;;;;;;;;;9.80;99.90;;;;;;4841920;29;19924;-70
2023/01/05 11:19:14;;;;;;;;;;;9.80;99.90;;;;;;4856648;29;20369;-70
2023/01/05 11:21:44;;;;;;;;;;;9.80;99.90;;;;;;4857437;29;19988;-70
2023/01/05 11:24:22;;;;;;;;;;;9.80;99.90;;;;;;4842793;29;19992;-72
2023/01/05 11:26:48;;;;;;;;;;;9.90;99.90;;;;;;4855239;29;19934;-73
2023/01/05 11:29:14;;;;;;;;;;;9.90;99.90;;;;;;4840904;29;19932;-72
2023/01/05 11:31:55;;;;;;;;;;;9.90;99.90;;;;;;4842476;29;20354;-72
2023/01/05 11:34:36;;;;;;;;;;;9.90;99.90;;;;;;4837890;29;19924;-72
2023/01/05 11:37:02;;;;;;;;;;;9.90;99.90;;;;;;4858413;29;19931;-73
2023/01/05 11:39:33;;;;;;;;;;;9.90;99.90;;;;;;4857318;29;19939;-72
2023/01/05 11:42:25;;;;;;;;;;;9.90;99.90;;;;;;4859467;29;19928;-72
2023/01/05 11:44:50;;;;;;;;;;;9.90;99.90;;;;;;4840535;29;20016;-73
2023/01/05 11:47:25;;;;;;;;;;;9.90;99.90;;;;;;4840267;29;20019;-73
2023/01/05 11:50:10;;;;;;;;;;;9.90;99.90;;;;;;4860484;29;19931;-73
2023/01/05 11:52:40;;;;;;;;;;;9.90;99.90;;;;;;4872088;29;19939;-72
2023/01/05 11:55:25;;;;;;;;;;;9.80;99.90;;;;;;4853822;29;19964;-72
2023/01/05 11:57:51;;;;;;;;;;;9.80;99.90;;;;;;4846833;29;20472;-72
2023/01/05 12:00:27;;;;;;;;;;;9.90;99.90;;;;;;4840627;29;19924;-71
2023/01/05 12:02:53;;;;;;;;;;;9.90;99.90;;;;;;4850498;29;19984;-72
2023/01/05 12:05:24;;;;;;;;;;;9.90;99.90;;;;;;4842952;29;20372;-73
2023/01/05 12:08:13;;;;;;;;;;;9.90;99.90;;;;;;4856880;29;19928;-72
2023/01/05 12:10:57;;;;;;;;;;;9.90;99.90;;;;;;4823135;29;19924;-72
2023/01/05 12:13:22;;;;;;;;;;;9.90;99.90;;;;;;4834279;29;20347;-72
2023/01/05 12:15:48;;;;;;;;;;;9.90;99.90;;;;;;4859825;29;19981;-73
2023/01/05 12:18:24;;;;;;;;;;;9.90;99.90;;;;;;4868779;29;19924;-72
2023/01/05 12:20:56;;;;;;;;;;;9.80;99.90;;;;;;4846810;29;19935;-72
2023/01/05 12:23:29;;;;;;;;;;;9.90;99.90;;;;;;4864049;29;19931;-72
2023/01/05 12:26:00;;;;;;;;;;;9.90;99.90;;;;;;4850537;29;19973;-72
2023/01/05 12:28:29;;;;;;;;;;;9.90;99.90;;;;;;4828393;29;20150;-74
2023/01/05 12:31:19;;;;;;;;;;;9.90;99.90;;;;;;4861957;29;20305;-73
2023/01/05 12:34:00;;;;;;;;;;;9.90;99.90;;;;;;4843050;29;19932;-73
2023/01/05 12:36:37;;;;;;;;;;;9.90;99.90;;;;;;4846270;29;20384;-73
2023/01/05 12:39:06;;;;;;;;;;;9.90;99.90;;;;;;4869794;29;19935;-73
2023/01/05 12:41:53;;;;;;;;;;;10.00;99.90;;;;;;4853190;29;19988;-73
2023/01/05 12:44:28;;;;;;;;;;;9.90;99.90;;;;;;4842822;29;19931;-73
2023/01/05 12:47:15;;;;;;;;;;;9.90;99.90;;;;;;4845387;29;19932;-73
2023/01/05 12:49:43;;;;;;;;;;;10.00;99.90;;;;;;4851203;29;19931;-73
2023/01/05 12:52:22;;;;;;;;;;;10.00;99.90;;;;;;4849984;29;19944;-73
2023/01/05 12:55:01;;;;;;;;;;;10.00;99.90;;;;;;4853334;29;19934;-73
2023/01/05 12:57:35;;;;;;;;;;;10.00;99.90;;;;;;4845534;29;19928;-73
2023/01/05 13:00:10;;;;;;;;;;;10.00;99.90;;;;;;4855863;29;19959;-73
2023/01/05 13:02:38;;;;;;;;;;;10.00;99.90;;;;;;4854411;29;19978;-72
2023/01/05 13:05:08;;;;;;;;;;;10.00;99.90;;;;;;4854558;29;19928;-73
2023/01/05 13:07:42;;;;;;;;;;;10.00;99.90;;;;;;4856805;29;19940;-73
2023/01/05 13:10:16;;;;;;;;;;;10.00;99.90;;;;;;4850205;29;19932;-73
2023/01/05 13:12:43;;;;;;;;;;;9.90;99.90;;;;;;4845064;29;19935;-73
2023/01/05 13:15:47;;;;;;;;;;;9.90;99.90;;;;;;4841467;29;19984;-73
2023/01/05 13:18:14;;;;;;;;;;;9.90;99.90;;;;;;4802422;29;19925;-72
2023/01/05 13:20:42;;;;;;;;;;;9.90;99.90;;;;;;4787723;29;19972;-73
2023/01/05 13:23:13;;;;;;;;;;;9.80;99.90;;;;;;4823131;29;19928;-73
2023/01/05 13:25:44;;;;;;;;;;;9.80;99.90;;;;;;4835036;29;19980;-73
2023/01/05 13:28:17;;;;;;;;;;;9.80;99.90;;;;;;4855076;29;20036;-73
2023/01/05 13:30:45;;;;;;;;;;;9.80;99.90;;;;;;4839710;29;19931;-73
2023/01/05 13:33:17;;;;;;;;;;;9.80;99.90;;;;;;4860731;29;19936;-72
2023/01/05 13:36:18;;;;;;;;;;;9.80;99.90;;;;;;4845092;29;19956;-73
2023/01/05 13:38:44;;;;;;;;;;;9.80;99.90;;;;;;4804542;29;19987;-72
2023/01/05 13:41:22;;;;;;;;;;;9.70;99.90;;;;;;4842335;29;19980;-72
2023/01/05 13:43:56;;;;;;;;;;;9.70;99.90;;;;;;4858124;29;20254;-72
2023/01/05 13:46:33;;;;;;;;;;;9.70;99.90;;;;;;4838353;29;20503;-71
2023/01/05 13:48:58;;;;;;;;;;;9.60;99.90;;;;;;4864682;29;19935;-71
2023/01/05 13:51:43;;;;;;;;;;;9.60;99.90;;;;;;4848392;29;19955;-72
2023/01/05 13:54:11;;;;;;;;;;;9.60;99.90;;;;;;4855786;29;19932;-72
2023/01/05 13:56:37;;;;;;;;;;;9.60;99.90;;;;;;4853348;29;19928;-72
2023/01/05 13:59:05;;;;;;;;;;;9.60;99.90;;;;;;4858037;29;20401;-72
2023/01/05 14:01:35;;;;;;;;;;;9.60;99.90;;;;;;4859437;29;20369;-72
2023/01/05 14:04:01;;;;;;;;;;;9.60;99.90;;;;;;4844530;29;20019;-72
2023/01/05 14:06:28;;;;;;;;;;;9.70;99.90;;;;;;4843117;29;19936;-71
2023/01/05 14:08:57;;;;;;;;;;;9.60;99.90;;;;;;4840630;29;19932;-72
2023/01/05 14:11:24;;;;;;;;;;;9.60;99.90;;;;;;4855183;29;19983;-71
2023/01/05 14:13:52;;;;;;;;;;;9.60;99.90;;;;;;4850756;29;19991;-72
2023/01/05 14:16:37;;;;;;;;;;;9.70;99.90;;;;;;4836639;29;19935;-72
2023/01/05 14:19:21;;;;;;;;;;;9.70;99.90;;;;;;4873170;29;19928;-72
2023/01/05 14:21:50;;;;;;;;;;;9.70;99.90;;;;;;4851263;29;19924;-72
2023/01/05 14:24:27;;;;;;;;;;;9.60;99.90;;;;;;4862519;29;20011;-72
2023/01/05 14:27:06;;;;;;;;;;;9.60;99.90;;;;;;4872599;29;19934;-71
2023/01/05 14:29:47;;;;;;;;;;;9.60;99.90;;;;;;4852274;29;20314;-72
2023/01/05 14:32:33;;;;;;;;;;;9.50;99.90;;;;;;4831806;29;19935;-72
2023/01/05 14:35:03;;;;;;;;;;;9.50;99.90;;;;;;4830448;29;19958;-72
2023/01/05 14:37:37;;;;;;;;;;;9.50;99.90;;;;;;4843272;29;19928;-72
2023/01/05 14:40:14;;;;;;;;;;;9.50;99.90;;;;;;4854922;29;19979;-72
2023/01/05 14:42:40;;;;;;;;;;;9.50;99.90;;;;;;4843878;29;20031;-72
2023/01/05 14:45:07;;;;;;;;;;;9.40;99.90;;;;;;4843572;29;19934;-72
2023/01/05 14:47:40;;;;;;;;;;;9.40;99.90;;;;;;4845250;29;19935;-72
2023/01/05 14:50:24;;;;;;;;;;;9.40;99.90;;;;;;4854202;29;19928;-72
2023/01/05 14:53:10;;;;;;;;;;;9.40;99.90;;;;;;4842366;29;20426;-72
2023/01/05 14:55:38;;;;;;;;;;;9.30;99.90;;;;;;4855892;29;20592;-72
2023/01/05 14:58:10;;;;;;;;;;;9.30;99.90;;;;;;4857790;29;19928;-72
2023/01/05 15:00:41;;;;;;;;;;;9.20;99.90;;;;;;4837796;29;20354;-72
2023/01/05 15:03:07;;;;;;;;;;;9.20;99.90;;;;;;4841647;29;19936;-72
2023/01/05 15:05:33;;;;;;;;;;;9.10;99.90;;;;;;4842810;29;19928;-72
2023/01/05 15:07:58;;;;;;;;;;;9.00;99.90;;;;;;4858426;29;19936;-72